createdAt,value
2024-02-12T00:02:29.557Z,97958.70
2024-02-12T00:04:56.627Z,97954.36
2024-02-12T00:07:23.537Z,97958.77
2024-02-12T00:09:50.286Z,97958.40
2024-02-12T00:12:17.042Z,97955.86
2024-02-12T00:14:45.891Z,97958.86
2024-02-12T00:17:16.576Z,97950.68
2024-02-12T00:19:43.468Z,97951.69
2024-02-12T00:22:10.043Z,97954.13
2024-02-12T00:24:37.812Z,97948.27
2024-02-12T00:27:07.710Z,97948.60
2024-02-12T00:29:35.037Z,97950.06
2024-02-12T00:32:01.742Z,97945.70
2024-02-12T00:34:35.490Z,97949.75
2024-02-12T00:37:03.203Z,97946.92
2024-02-12T00:39:31.603Z,97945.89
2024-02-12T00:42:00.413Z,97948.34
2024-02-12T00:44:27.356Z,97947.28
2024-02-12T00:46:55.331Z,97944.34
2024-02-12T00:49:22.252Z,97944.98
2024-02-12T00:51:52.093Z,97946.01
2024-02-12T00:54:19.278Z,97947.56
2024-02-12T00:56:46.275Z,97946.83
2024-02-12T00:59:18.015Z,97944.20
2024-02-12T01:01:44.855Z,97946.92
2024-02-12T01:04:13.568Z,97945.59
2024-02-12T01:06:41.369Z,97943.84
2024-02-12T01:09:12.664Z,97944.99
2024-02-12T01:11:40.949Z,97942.77
2024-02-12T01:14:08.144Z,97943.74
2024-02-12T01:16:35.772Z,97939.93
2024-02-12T01:19:03.284Z,97944.95
2024-02-12T01:21:34.288Z,97938.73
2024-02-12T01:24:04.403Z,97940.52
2024-02-12T01:26:41.499Z,97938.11
2024-02-12T01:29:08.795Z,97940.71
2024-02-12T01:31:36.904Z,97936.79
2024-02-12T01:34:05.352Z,97936.79
2024-02-12T01:36:33.024Z,97934.42
2024-02-12T01:38:59.798Z,97933.61
2024-02-12T01:41:26.722Z,97933.39
2024-02-12T01:43:54.304Z,97932.29
2024-02-12T01:46:21.368Z,97930.53
2024-02-12T01:48:48.704Z,97930.73
2024-02-12T01:51:25.010Z,97929.06
2024-02-12T01:53:53.748Z,97929.71
2024-02-12T01:56:21.747Z,97928.88
2024-02-12T01:58:48.930Z,97926.09
2024-02-12T02:01:16.699Z,97925.52
2024-02-12T02:03:45.435Z,97922.02
2024-02-12T02:06:13.888Z,97923.63
2024-02-12T02:08:42.344Z,97919.52
2024-02-12T02:11:13.656Z,97920.20
2024-02-12T02:13:42.885Z,97916.96
2024-02-12T02:16:16.519Z,97916.95
2024-02-12T02:18:49.228Z,97910.73
2024-02-12T02:21:22.898Z,97913.62
2024-02-12T02:23:51.829Z,97911.47
2024-02-12T02:26:19.535Z,97907.09
2024-02-12T02:28:46.293Z,97908.85
2024-02-12T02:31:13.026Z,97910.90
2024-02-12T02:33:39.997Z,97909.91
2024-02-12T02:36:07.119Z,97908.59
2024-02-12T02:38:34.823Z,97908.06
2024-02-12T02:41:02.235Z,97909.48
2024-02-12T02:43:28.976Z,97915.21
2024-02-12T02:45:55.797Z,97912.59
2024-02-12T02:48:22.528Z,97916.11
2024-02-12T02:50:49.410Z,97911.58
2024-02-12T02:53:16.161Z,97917.20
2024-02-12T02:55:43.682Z,97917.23
2024-02-12T02:58:10.275Z,97915.66
2024-02-12T03:00:37.013Z,97912.14
2024-02-12T03:03:04.793Z,97913.02
2024-02-12T03:05:32.157Z,97913.04
2024-02-12T03:08:02.979Z,97914.14
2024-02-12T03:10:31.023Z,97914.04
2024-02-12T03:12:59.918Z,97913.66
2024-02-12T03:15:27.096Z,97914.10
2024-02-12T03:17:54.527Z,97914.59
2024-02-12T03:20:22.063Z,97912.81
2024-02-12T03:22:48.785Z,97913.17
2024-02-12T03:25:16.447Z,97917.21
2024-02-12T03:27:44.516Z,97918.41
2024-02-12T03:30:11.700Z,97916.88
2024-02-12T03:32:41.882Z,97917.23
2024-02-12T03:35:09.124Z,97919.92
2024-02-12T03:37:36.375Z,97918.52
2024-02-12T03:40:04.038Z,97917.36
2024-02-12T03:42:30.815Z,97920.64
2024-02-12T03:44:57.734Z,97923.73
2024-02-12T03:47:38.789Z,97921.59
2024-02-12T03:50:26.382Z,97920.70
2024-02-12T03:53:12.307Z,97920.59
2024-02-12T03:55:57.856Z,97917.41
2024-02-12T03:58:43.383Z,97913.56
2024-02-12T04:01:11.606Z,97918.41
2024-02-12T04:03:38.328Z,97918.38
2024-02-12T04:06:06.745Z,97916.55
2024-02-12T04:08:34.763Z,97919.05
2024-02-12T04:11:01.647Z,97920.06
2024-02-12T04:13:28.348Z,97919.84
2024-02-12T04:15:55.491Z,97922.77
2024-02-12T04:18:22.162Z,97917.94
2024-02-12T04:20:49.756Z,97917.64
2024-02-12T04:23:17.596Z,97916.98
2024-02-12T04:25:44.381Z,97916.70
2024-02-12T04:28:13.955Z,97914.86
2024-02-12T04:30:40.877Z,97917.36
2024-02-12T04:33:07.714Z,97919.08
2024-02-12T04:35:35.939Z,97916.27
2024-02-12T04:38:03.187Z,97919.04
2024-02-12T04:40:30.423Z,97915.18
2024-02-12T04:42:58.399Z,97915.21
2024-02-12T04:45:28.303Z,97918.67
2024-02-12T04:47:55.628Z,97919.91
2024-02-12T04:50:23.811Z,97919.00
2024-02-12T04:52:50.530Z,97914.02
2024-02-12T04:55:17.627Z,97918.92
2024-02-12T04:57:44.462Z,97919.61
2024-02-12T05:00:11.801Z,97920.71
2024-02-12T05:02:40.877Z,97919.45
2024-02-12T05:05:08.457Z,97919.84
2024-02-12T05:07:35.348Z,97921.80
2024-02-12T05:10:01.962Z,97922.20
2024-02-12T05:12:30.012Z,97924.64
2024-02-12T05:14:57.235Z,97927.42
2024-02-12T05:17:28.953Z,97931.00
2024-02-12T05:20:14.493Z,97930.92
2024-02-12T05:22:42.180Z,97933.59
2024-02-12T05:25:09.220Z,97932.96
2024-02-12T05:27:35.935Z,97933.45
2024-02-12T05:30:03.096Z,97938.42
2024-02-12T05:32:30.281Z,97935.10
2024-02-12T05:35:31.304Z,97939.40
2024-02-12T05:37:58.920Z,97936.69
2024-02-12T05:40:25.980Z,97942.39
2024-02-12T05:42:52.734Z,97943.76
2024-02-12T05:45:20.358Z,97947.11
2024-02-12T05:47:48.194Z,97951.44
2024-02-12T05:50:15.150Z,97954.30
2024-02-12T05:52:41.913Z,97955.34
2024-02-12T05:55:08.525Z,97960.55
2024-02-12T05:57:35.828Z,97961.52
2024-02-12T06:00:03.453Z,97963.05
2024-02-12T06:02:31.958Z,97967.29
2024-02-12T06:04:59.974Z,97965.85
2024-02-12T06:07:27.443Z,97972.83
2024-02-12T06:09:54.462Z,97972.97
2024-02-12T06:12:21.353Z,97979.33
2024-02-12T06:14:48.571Z,97974.51
2024-02-12T06:17:17.590Z,97978.09
2024-02-12T06:19:44.309Z,97977.34
2024-02-12T06:22:12.384Z,97978.64
2024-02-12T06:24:40.201Z,97980.60
2024-02-12T06:27:08.770Z,97980.48
2024-02-12T06:29:39.070Z,97979.29
2024-02-12T06:32:14.228Z,97979.68
2024-02-12T06:34:49.819Z,97981.76
2024-02-12T06:37:17.856Z,97979.16
2024-02-12T06:39:44.929Z,97981.11
2024-02-12T06:42:11.812Z,97986.27
2024-02-12T06:44:39.455Z,97985.77
2024-02-12T06:47:06.424Z,97989.49
2024-02-12T06:49:33.452Z,97990.30
2024-02-12T06:52:00.576Z,97995.48
2024-02-12T06:54:27.139Z,97994.33
2024-02-12T06:56:53.883Z,97992.98
2024-02-12T06:59:20.904Z,97998.44
2024-02-12T07:01:47.668Z,97999.06
2024-02-12T07:04:14.569Z,97999.02
2024-02-12T07:06:41.441Z,97998.78
2024-02-12T07:09:09.146Z,97996.50
2024-02-12T07:11:38.314Z,98001.02
2024-02-12T07:14:05.161Z,98000.14
2024-02-12T07:16:32.366Z,98000.08
2024-02-12T07:19:02.388Z,98000.38
2024-02-12T07:21:29.152Z,97999.19
2024-02-12T07:23:56.084Z,97997.20
2024-02-12T07:26:23.089Z,97999.83
2024-02-12T07:28:50.609Z,97999.69
2024-02-12T07:31:17.565Z,98000.14
2024-02-12T07:33:44.646Z,98004.17
2024-02-12T07:36:11.462Z,98005.54
2024-02-12T07:38:38.922Z,98006.72
2024-02-12T07:41:06.354Z,98008.20
2024-02-12T07:43:33.051Z,98008.75
2024-02-12T07:46:00.694Z,98008.40
2024-02-12T07:48:28.802Z,98009.58
2024-02-12T07:50:56.407Z,98008.64
2024-02-12T07:53:29.354Z,98010.48
2024-02-12T07:55:56.476Z,98013.88
2024-02-12T07:58:25.149Z,98015.42
2024-02-12T08:00:52.148Z,98020.98
2024-02-12T08:03:21.020Z,98020.23
2024-02-12T08:05:49.462Z,98023.86
2024-02-12T08:08:17.308Z,98020.36
2024-02-12T08:10:44.354Z,98020.27
2024-02-12T08:13:11.254Z,98024.44
2024-02-12T08:15:38.068Z,98027.54
2024-02-12T08:18:07.004Z,98028.50
2024-02-12T08:20:34.953Z,98026.98
2024-02-12T08:23:03.949Z,98029.23
2024-02-12T08:25:30.957Z,98032.57
2024-02-12T08:27:59.287Z,98032.05
2024-02-12T08:30:26.042Z,98036.13
2024-02-12T08:32:52.846Z,98038.22
2024-02-12T08:35:21.235Z,98038.41
2024-02-12T08:37:48.542Z,98039.73
2024-02-12T08:40:16.752Z,98044.63
2024-02-12T08:42:46.437Z,98047.13
2024-02-12T08:45:15.121Z,98052.91
2024-02-12T08:47:42.778Z,98059.29
2024-02-12T08:50:11.416Z,98062.13
2024-02-12T08:52:38.261Z,98063.00
2024-02-12T08:55:10.350Z,98068.42
2024-02-12T08:57:44.817Z,98069.98
2024-02-12T09:00:14.090Z,98073.91
2024-02-12T09:02:44.297Z,98077.04
2024-02-12T09:05:11.373Z,98080.87
2024-02-12T09:07:38.819Z,98084.61
2024-02-12T09:10:08.446Z,98089.64
2024-02-12T09:12:48.136Z,98092.73
2024-02-12T09:15:21.220Z,98095.44
2024-02-12T09:17:48.979Z,98101.59
2024-02-12T09:20:16.520Z,98101.88
2024-02-12T09:22:43.540Z,98106.86
2024-02-12T09:25:14.655Z,98107.89
2024-02-12T09:27:48.032Z,98111.33
2024-02-12T09:30:17.978Z,98111.20
2024-02-12T09:32:47.490Z,98115.48
2024-02-12T09:35:18.193Z,98117.64
2024-02-12T09:37:46.732Z,98117.45
2024-02-12T09:40:15.936Z,98115.27
2024-02-12T09:42:43.577Z,98117.06
2024-02-12T09:45:12.036Z,98126.13
2024-02-12T09:47:43.983Z,98125.95
2024-02-12T09:50:13.586Z,98124.56
2024-02-12T09:52:44.580Z,98126.96
2024-02-12T09:55:13.730Z,98127.29
2024-02-12T09:57:41.630Z,98128.05
2024-02-12T10:00:10.735Z,98130.79
2024-02-12T10:02:38.962Z,98131.81
2024-02-12T10:05:07.089Z,98135.16
2024-02-12T10:07:40.932Z,98135.30
2024-02-12T10:10:09.603Z,98136.19
2024-02-12T10:12:37.215Z,98134.74
2024-02-12T10:15:08.017Z,98136.60
2024-02-12T10:17:35.286Z,98135.40
2024-02-12T10:20:10.090Z,98137.09
2024-02-12T10:22:39.748Z,98139.92
2024-02-12T10:25:08.128Z,98136.29
2024-02-12T10:27:36.578Z,98140.16
2024-02-12T10:30:07.479Z,98142.05
2024-02-12T10:32:38.757Z,98138.33
2024-02-12T10:35:12.274Z,98144.44
2024-02-12T10:37:39.498Z,98143.27
2024-02-12T10:40:13.028Z,98142.09
2024-02-12T10:42:52.866Z,98145.34
2024-02-12T10:45:20.539Z,98147.35
2024-02-12T10:47:52.076Z,98147.42
2024-02-12T10:50:20.135Z,98150.80
2024-02-12T10:52:50.635Z,98152.52
2024-02-12T10:55:19.621Z,98150.64
2024-02-12T10:57:47.505Z,98154.95
2024-02-12T11:00:29.468Z,98152.78
2024-02-12T11:02:57.231Z,98154.67
2024-02-12T11:05:24.852Z,98156.31
2024-02-12T11:08:10.661Z,98156.61
2024-02-12T11:10:41.478Z,98159.45
2024-02-12T11:13:10.901Z,98161.86
2024-02-12T11:15:38.143Z,98161.48
2024-02-12T11:18:15.148Z,98164.64
2024-02-12T11:20:52.594Z,98165.27
2024-02-12T11:23:22.202Z,98164.69
2024-02-12T11:25:55.096Z,98166.31
2024-02-12T11:28:25.789Z,98168.83
2024-02-12T11:30:54.822Z,98170.36
2024-02-12T11:33:28.704Z,98173.05
2024-02-12T11:36:08.487Z,98175.50
2024-02-12T11:38:59.501Z,98176.87
2024-02-12T11:41:27.640Z,98181.50
2024-02-12T11:43:56.184Z,98181.72
2024-02-12T11:46:25.320Z,98184.48
2024-02-12T11:49:08.178Z,98182.52
2024-02-12T11:51:37.314Z,98182.84
2024-02-12T11:54:06.669Z,98183.27
2024-02-12T11:56:35.599Z,98180.30
2024-02-12T11:59:06.235Z,98184.55
2024-02-12T12:01:36.020Z,98184.36
2024-02-12T12:04:03.212Z,98184.38
2024-02-12T12:06:32.621Z,98188.48
2024-02-12T12:09:00.950Z,98187.45
2024-02-12T12:11:29.983Z,98185.82
2024-02-12T12:14:01.525Z,98187.54
2024-02-12T12:16:33.108Z,98185.91
2024-02-12T12:19:12.164Z,98186.96
2024-02-12T12:21:40.262Z,98190.61
2024-02-12T12:24:12.162Z,98190.48
2024-02-12T12:26:39.043Z,98189.30
2024-02-12T12:29:06.224Z,98190.16
2024-02-12T12:31:34.287Z,98189.30
2024-02-12T12:34:01.419Z,98190.96
2024-02-12T12:36:31.707Z,98186.17
2024-02-12T12:39:02.071Z,98186.73
2024-02-12T12:41:30.797Z,98192.87
2024-02-12T12:43:57.800Z,98191.35
2024-02-12T12:46:24.525Z,98189.61
2024-02-12T12:48:51.661Z,98191.33
2024-02-12T12:51:19.097Z,98195.14
2024-02-12T12:53:45.870Z,98197.58
2024-02-12T12:56:12.663Z,98198.23
2024-02-12T12:58:39.594Z,98200.86
2024-02-12T13:01:10.424Z,98204.77
2024-02-12T13:03:39.705Z,98209.83
2024-02-12T13:06:06.588Z,98207.80
2024-02-12T13:08:34.932Z,98217.60
2024-02-12T13:11:03.115Z,98213.04
2024-02-12T13:13:30.478Z,98218.73
2024-02-12T13:15:59.403Z,98217.92
2024-02-12T13:18:30.720Z,98219.39
2024-02-12T13:20:59.256Z,98220.24
2024-02-12T13:23:56.730Z,98223.52
2024-02-12T13:26:25.355Z,98228.38
2024-02-12T13:28:55.224Z,98229.91
2024-02-12T13:31:28.980Z,98236.49
2024-02-12T13:33:56.074Z,98237.28
2024-02-12T13:36:28.480Z,98240.17
2024-02-12T13:38:55.778Z,98241.84
2024-02-12T13:41:22.656Z,98243.98
2024-02-12T13:43:50.403Z,98247.91
2024-02-12T13:46:17.312Z,98246.64
2024-02-12T13:48:47.254Z,98250.05
2024-02-12T13:51:17.248Z,98253.16
2024-02-12T13:53:46.557Z,98252.30
2024-02-12T13:56:13.350Z,98259.20
2024-02-12T13:58:40.257Z,98263.10
2024-02-12T14:01:22.113Z,98268.80
2024-02-12T14:03:56.937Z,98270.94
2024-02-12T14:06:23.610Z,98274.10
2024-02-12T14:08:50.645Z,98278.54
2024-02-12T14:11:17.889Z,98279.30
2024-02-12T14:13:46.630Z,98281.66
2024-02-12T14:16:13.636Z,98282.77
2024-02-12T14:18:44.181Z,98281.93
2024-02-12T14:21:12.763Z,98285.78
2024-02-12T14:23:42.650Z,98289.80
2024-02-12T14:26:14.042Z,98292.18
2024-02-12T14:28:44.444Z,98296.91
2024-02-12T14:31:16.231Z,98299.98
2024-02-12T14:33:46.131Z,98303.95
2024-02-12T14:36:14.924Z,98309.42
2024-02-12T14:38:42.181Z,98314.97
2024-02-12T14:41:09.943Z,98315.77
2024-02-12T14:43:37.434Z,98316.87
2024-02-12T14:46:04.624Z,98318.95
2024-02-12T14:48:32.959Z,98321.95
2024-02-12T14:51:00.019Z,98323.23
2024-02-12T14:53:27.911Z,98327.85
2024-02-12T14:55:55.022Z,98328.27
2024-02-12T14:58:21.625Z,98332.55
2024-02-12T15:00:48.421Z,98335.25
2024-02-12T15:03:15.433Z,98334.19
2024-02-12T15:05:42.949Z,98340.64
2024-02-12T15:08:09.761Z,98344.75
2024-02-12T15:10:37.083Z,98349.95
2024-02-12T15:13:17.260Z,98351.33
2024-02-12T15:15:46.921Z,98359.30
2024-02-12T15:18:17.811Z,98362.40
2024-02-12T15:20:46.560Z,98364.27
2024-02-12T15:23:15.582Z,98369.12
2024-02-12T15:25:44.484Z,98372.89
2024-02-12T15:28:15.009Z,98373.27
2024-02-12T15:30:49.809Z,98381.60
2024-02-12T15:33:16.909Z,98382.71
2024-02-12T15:35:45.579Z,98383.67
2024-02-12T15:38:16.416Z,98387.23
2024-02-12T15:40:44.282Z,98390.80
2024-02-12T15:43:15.017Z,98396.64
2024-02-12T15:45:41.950Z,98397.08
2024-02-12T15:48:17.142Z,98401.67
2024-02-12T15:50:46.627Z,98403.89
2024-02-12T15:53:13.949Z,98406.39
2024-02-12T15:55:45.070Z,98409.23
2024-02-12T15:58:14.805Z,98412.95
2024-02-12T16:00:42.637Z,98414.24
2024-02-12T16:03:13.115Z,98412.79
2024-02-12T16:06:07.442Z,98419.00
2024-02-12T16:08:37.169Z,98422.97
2024-02-12T16:11:05.113Z,59053.68
2024-02-12T16:13:32.246Z,-1.00
2024-02-12T16:16:00.924Z,-1.00
2024-02-12T16:18:30.934Z,-1.00
2024-02-12T16:20:58.040Z,-1.00
2024-02-12T16:23:32.519Z,-1.00
2024-02-12T16:25:59.907Z,-1.00
2024-02-12T16:28:30.608Z,-1.00
2024-02-12T16:31:01.566Z,-1.00
2024-02-12T16:33:28.352Z,-1.00
2024-02-12T16:35:56.716Z,-1.00
2024-02-12T16:38:23.545Z,-1.00
2024-02-12T16:40:51.460Z,-1.00
2024-02-12T16:43:19.404Z,-1.00
2024-02-12T16:45:46.227Z,-1.00
2024-02-12T16:48:14.113Z,-1.00
2024-02-12T16:50:42.542Z,-1.00
2024-02-12T16:53:10.399Z,-1.00
2024-02-12T16:55:41.128Z,-1.00
2024-02-12T16:58:08.788Z,-1.00
2024-02-12T17:00:37.220Z,-1.00
2024-02-12T17:03:04.453Z,-1.00
2024-02-12T17:05:31.741Z,-1.00
2024-02-12T17:08:06.729Z,-1.00
2024-02-12T17:10:36.530Z,-1.00
2024-02-12T17:13:07.015Z,-1.00
2024-02-12T17:15:37.043Z,-1.00
2024-02-12T17:18:08.159Z,-1.00
2024-02-12T17:20:37.727Z,-1.00
2024-02-12T17:23:07.912Z,-1.00
2024-02-12T17:25:34.891Z,-1.00
2024-02-12T17:28:03.935Z,-1.00
2024-02-12T17:30:31.892Z,-1.00
2024-02-12T17:33:00.871Z,-1.00
2024-02-12T17:35:28.037Z,-1.00
2024-02-12T17:37:58.141Z,-1.00
2024-02-12T17:40:25.087Z,-1.00
2024-02-12T17:42:53.057Z,-1.00
2024-02-12T17:45:19.910Z,-1.00
2024-02-12T17:47:50.201Z,-1.00
2024-02-12T17:50:20.604Z,-1.00
2024-02-12T17:52:47.310Z,-1.00
2024-02-12T17:55:16.124Z,-1.00
2024-02-12T17:57:43.238Z,-1.00
2024-02-12T18:00:12.326Z,-1.00
2024-02-12T18:02:39.479Z,-1.00
2024-02-12T18:05:09.517Z,-1.00
2024-02-12T18:07:37.983Z,-1.00
2024-02-12T18:10:06.499Z,-1.00
2024-02-12T18:12:34.974Z,-1.00
2024-02-12T18:15:01.773Z,-1.00
2024-02-12T18:17:28.906Z,-1.00
2024-02-12T18:19:58.026Z,-1.00
2024-02-12T18:22:26.681Z,-1.00
2024-02-12T18:24:54.379Z,-1.00
2024-02-12T18:27:21.265Z,-1.00
2024-02-12T18:29:48.324Z,-1.00
2024-02-12T18:32:15.366Z,-1.00
2024-02-12T18:34:44.047Z,-1.00
2024-02-12T18:37:14.661Z,-1.00
2024-02-12T18:39:41.727Z,-1.00
2024-02-12T18:42:09.174Z,-1.00
2024-02-12T18:44:36.098Z,-1.00
2024-02-12T18:47:03.377Z,-1.00
2024-02-12T18:49:30.756Z,-1.00
2024-02-12T18:51:58.204Z,-1.00
2024-02-12T18:54:27.452Z,-1.00
2024-02-12T18:56:56.114Z,-1.00
2024-02-12T18:59:24.977Z,-1.00
2024-02-12T19:01:55.076Z,-1.00
2024-02-12T19:04:22.464Z,-1.00
2024-02-12T19:06:50.659Z,-1.00
2024-02-12T19:09:18.176Z,-1.00
2024-02-12T19:11:47.024Z,-1.00
2024-02-12T19:14:16.600Z,-1.00
2024-02-12T19:16:43.990Z,-1.00
2024-02-12T19:19:13.042Z,-1.00
2024-02-12T19:21:42.150Z,-1.00
2024-02-12T19:24:10.777Z,-1.00
2024-02-12T19:26:38.012Z,-1.00
2024-02-12T19:29:05.908Z,-1.00
2024-02-12T19:31:34.673Z,-1.00
2024-02-12T19:34:01.717Z,-1.00
2024-02-12T19:36:28.420Z,-1.00
2024-02-12T19:38:55.376Z,-1.00
2024-02-12T19:41:25.631Z,-1.00
2024-02-12T19:43:52.772Z,-1.00
2024-02-12T19:46:19.853Z,-1.00
2024-02-12T19:48:49.333Z,-1.00
2024-02-12T19:51:16.766Z,-1.00
2024-02-12T19:53:43.513Z,-1.00
2024-02-12T19:56:10.542Z,-1.00
2024-02-12T19:58:37.736Z,-1.00
2024-02-12T20:01:07.121Z,-1.00
2024-02-12T20:03:55.589Z,-1.00
2024-02-12T20:06:22.224Z,-1.00
2024-02-12T20:08:49.087Z,-1.00
2024-02-12T20:11:19.427Z,-1.00
2024-02-12T20:13:47.547Z,-1.00
2024-02-12T20:16:15.319Z,-1.00
2024-02-12T20:18:42.933Z,-1.00
2024-02-12T20:21:10.740Z,-1.00
2024-02-12T20:23:38.013Z,-1.00
2024-02-12T20:26:07.717Z,-1.00
2024-02-12T20:28:35.029Z,-1.00
2024-02-12T20:31:02.018Z,-1.00
2024-02-12T20:33:29.714Z,-1.00
2024-02-12T20:35:59.409Z,-1.00
2024-02-12T20:38:26.593Z,-1.00
2024-02-12T20:40:54.669Z,-1.00
2024-02-12T20:43:21.956Z,-1.00
2024-02-12T20:45:48.779Z,-1.00
2024-02-12T20:48:18.891Z,-1.00
2024-02-12T20:50:45.954Z,-1.00
2024-02-12T20:53:13.484Z,-1.00
2024-02-12T20:55:40.909Z,-1.00
2024-02-12T20:58:08.025Z,-1.00
2024-02-12T21:00:36.496Z,-1.00
2024-02-12T21:03:07.597Z,-1.00
2024-02-12T21:05:37.190Z,-1.00
2024-02-12T21:08:04.598Z,-1.00
2024-02-12T21:10:32.158Z,-1.00
2024-02-12T21:12:59.180Z,-1.00
2024-02-12T21:15:26.388Z,-1.00
2024-02-12T21:17:54.081Z,-1.00
2024-02-12T21:20:21.880Z,-1.00
2024-02-12T21:22:48.955Z,-1.00
2024-02-12T21:25:16.332Z,-1.00
2024-02-12T21:27:45.415Z,-1.00
2024-02-12T21:30:12.726Z,-1.00
2024-02-12T21:32:41.768Z,-1.00
2024-02-12T21:35:08.996Z,-1.00
2024-02-12T21:37:37.700Z,-1.00
2024-02-12T21:40:12.559Z,-1.00
2024-02-12T21:42:39.298Z,-1.00
2024-02-12T21:45:09.226Z,-1.00
2024-02-12T21:47:36.508Z,-1.00
2024-02-12T21:50:04.637Z,-1.00
2024-02-12T21:52:31.308Z,-1.00
2024-02-12T21:55:00.353Z,-1.00
2024-02-12T21:57:27.410Z,-1.00
2024-02-12T21:59:55.466Z,-1.00
2024-02-12T22:02:22.752Z,-1.00
2024-02-12T22:04:54.117Z,-1.00
2024-02-12T22:07:23.040Z,-1.00
2024-02-12T22:09:50.178Z,-1.00
2024-02-12T22:12:17.658Z,-1.00
2024-02-12T22:14:45.553Z,-1.00
2024-02-12T22:17:13.077Z,-1.00
2024-02-12T22:19:41.457Z,-1.00
2024-02-12T22:22:08.709Z,-1.00
2024-02-12T22:24:35.632Z,-1.00
2024-02-12T22:27:04.586Z,-1.00
2024-02-12T22:29:31.404Z,-1.00
2024-02-12T22:31:58.655Z,-1.00
2024-02-12T22:34:25.552Z,-1.00
2024-02-12T22:36:53.144Z,-1.00
2024-02-12T22:39:20.974Z,-1.00
2024-02-12T22:41:48.060Z,-1.00
2024-02-12T22:44:15.027Z,-1.00
2024-02-12T22:46:44.039Z,-1.00
2024-02-12T22:49:13.274Z,-1.00
2024-02-12T22:51:41.209Z,-1.00
2024-02-12T22:54:11.792Z,-1.00
2024-02-12T22:56:38.842Z,-1.00
2024-02-12T22:59:07.429Z,-1.00
2024-02-12T23:01:34.276Z,-1.00
2024-02-12T23:04:02.730Z,-1.00
2024-02-12T23:06:30.288Z,-1.00
2024-02-12T23:08:57.253Z,-1.00
2024-02-12T23:11:25.639Z,-1.00
2024-02-12T23:13:55.355Z,-1.00
2024-02-12T23:16:22.203Z,-1.00
2024-02-12T23:18:49.111Z,-1.00
2024-02-12T23:21:18.349Z,-1.00
2024-02-12T23:23:45.410Z,-1.00
2024-02-12T23:26:12.717Z,-1.00
2024-02-12T23:28:42.130Z,-1.00
2024-02-12T23:31:09.040Z,-1.00
2024-02-12T23:33:36.717Z,-1.00
2024-02-12T23:36:03.970Z,-1.00
2024-02-12T23:38:35.974Z,-1.00
2024-02-12T23:41:03.433Z,-1.00
2024-02-12T23:43:30.550Z,-1.00
2024-02-12T23:45:57.504Z,-1.00
2024-02-12T23:48:24.363Z,-1.00
2024-02-12T23:50:51.816Z,-1.00
2024-02-12T23:53:19.062Z,-1.00
2024-02-12T23:55:50.313Z,-1.00
2024-02-12T23:58:31.816Z,-1.00
